createdAt,value
2023-01-23T00:00:01.000Z,1020.423912
2023-01-23T00:00:24.000Z,1020.423912
2023-01-23T00:00:51.000Z,1020.423912
2023-01-23T00:01:16.000Z,1020.423912
2023-01-23T00:01:43.000Z,1020.423912
2023-01-23T00:02:16.000Z,1020.220728
2023-01-23T00:02:46.000Z,1020.220728
2023-01-23T00:03:16.000Z,1020.32232
2023-01-23T00:03:51.000Z,1020.525504
2023-01-23T00:04:21.000Z,1020.525504
2023-01-23T00:04:51.000Z,1020.525504
2023-01-23T00:05:07.000Z,1020.525504
2023-01-23T00:05:26.000Z,1020.525504
2023-01-23T00:05:48.000Z,1020.7286879999999
2023-01-23T00:06:11.000Z,1020.7286879999999
2023-01-23T00:06:31.000Z,1020.7286879999999
2023-01-23T00:07:01.000Z,1020.525504
2023-01-23T00:07:31.000Z,1020.525504
2023-01-23T00:08:06.000Z,1020.423912
2023-01-23T00:08:36.000Z,1020.423912
2023-01-23T00:09:07.000Z,1020.627096
2023-01-23T00:09:26.000Z,1020.627096
2023-01-23T00:09:48.000Z,1020.627096
2023-01-23T00:10:11.000Z,1020.627096
2023-01-23T00:10:31.000Z,1020.627096
2023-01-23T00:11:01.000Z,1020.423912
2023-01-23T00:11:31.000Z,1020.423912
2023-01-23T00:12:06.000Z,1020.7286879999999
2023-01-23T00:12:36.000Z,1020.7286879999999
2023-01-23T00:13:07.000Z,1020.627096
2023-01-23T00:13:26.000Z,1020.627096
2023-01-23T00:13:48.000Z,1020.525504
2023-01-23T00:14:11.000Z,1020.525504
2023-01-23T00:14:31.000Z,1020.525504
2023-01-23T00:14:59.000Z,1020.525504
2023-01-23T00:15:16.000Z,1020.525504
2023-01-23T00:15:51.000Z,1020.32232
2023-01-23T00:16:22.000Z,1020.32232
2023-01-23T00:16:51.000Z,1020.627096
2023-01-23T00:17:26.000Z,1020.627096
2023-01-23T00:17:48.000Z,1020.423912
2023-01-23T00:18:11.000Z,1020.423912
2023-01-23T00:18:46.000Z,1020.423912
2023-01-23T00:19:16.000Z,1020.423912
2023-01-23T00:19:51.000Z,1020.627096
2023-01-23T00:20:21.000Z,1020.627096
2023-01-23T00:20:51.000Z,1020.525504
2023-01-23T00:21:26.000Z,1020.525504
2023-01-23T00:21:48.000Z,1020.423912
2023-01-23T00:22:11.000Z,1020.423912
2023-01-23T00:22:56.000Z,1020.220728
2023-01-23T00:23:19.000Z,1020.220728
2023-01-23T00:23:46.000Z,1020.423912
2023-01-23T00:24:03.000Z,1020.423912
2023-01-23T00:24:46.000Z,1020.423912
2023-01-23T00:25:12.000Z,1020.423912
2023-01-23T00:25:39.000Z,1020.423912
2023-01-23T00:26:06.000Z,1020.32232
2023-01-23T00:26:32.000Z,1020.32232
2023-01-23T00:26:56.000Z,1020.525504
2023-01-23T00:27:19.000Z,1020.525504
2023-01-23T00:27:46.000Z,1020.525504
2023-01-23T00:28:16.000Z,1020.525504
2023-01-23T00:28:46.000Z,1020.525504
2023-01-23T00:29:12.000Z,1020.423912
2023-01-23T00:29:39.000Z,1020.423912
2023-01-23T00:30:16.000Z,1020.627096
2023-01-23T00:30:56.000Z,1020.32232
2023-01-23T00:31:17.000Z,1020.32232
2023-01-23T00:31:51.000Z,1020.525504
2023-01-23T00:32:21.000Z,1020.525504
2023-01-23T00:32:51.000Z,1020.627096
2023-01-23T00:33:27.000Z,1020.627096
2023-01-23T00:33:48.000Z,1020.423912
2023-01-23T00:34:11.000Z,1020.423912
2023-01-23T00:34:46.000Z,1020.423912
2023-01-23T00:35:16.000Z,1020.423912
2023-01-23T00:35:51.000Z,1020.525504
2023-01-23T00:36:21.000Z,1020.525504
2023-01-23T00:36:51.000Z,1020.423912
2023-01-23T00:37:36.000Z,1020.423912
2023-01-23T00:37:56.000Z,1020.423912
2023-01-23T00:38:31.000Z,1020.423912
2023-01-23T00:38:59.000Z,1020.423912
2023-01-23T00:39:31.000Z,1020.423912
2023-01-23T00:40:06.000Z,1020.423912
2023-01-23T00:40:36.000Z,1020.423912
2023-01-23T00:40:52.000Z,1020.32232
2023-01-23T00:41:26.000Z,1020.32232
2023-01-23T00:41:48.000Z,1020.423912
2023-01-23T00:42:11.000Z,1020.423912
2023-01-23T00:42:46.000Z,1020.423912
2023-01-23T00:43:16.000Z,1020.525504
2023-01-23T00:43:51.000Z,1020.627096
2023-01-23T00:44:23.000Z,1020.627096
2023-01-23T00:44:46.000Z,1020.525504
2023-01-23T00:45:12.000Z,1020.525504
2023-01-23T00:45:41.000Z,1020.525504
2023-01-23T00:46:11.000Z,1020.525504
2023-01-23T00:46:46.000Z,1020.525504
2023-01-23T00:47:16.000Z,1020.525504
2023-01-23T00:47:51.000Z,1020.525504
2023-01-23T00:48:21.000Z,1020.525504
2023-01-23T00:48:51.000Z,1020.525504
2023-01-23T00:49:26.000Z,1020.525504
2023-01-23T00:49:48.000Z,1020.525504
2023-01-23T00:50:11.000Z,1020.525504
2023-01-23T00:50:46.000Z,1020.525504
2023-01-23T00:51:16.000Z,1020.627096
2023-01-23T00:51:51.000Z,1020.7286879999999
2023-01-23T00:52:19.000Z,1020.7286879999999
2023-01-23T00:52:36.000Z,1020.7286879999999
2023-01-23T00:53:07.000Z,1020.627096
2023-01-23T00:53:26.000Z,1020.627096
2023-01-23T00:53:48.000Z,1020.525504
2023-01-23T00:54:12.000Z,1020.525504
2023-01-23T00:54:46.000Z,1020.525504
2023-01-23T00:55:16.000Z,1020.525504
2023-01-23T00:55:51.000Z,1020.83028
2023-01-23T00:56:21.000Z,1020.83028
2023-01-23T00:56:51.000Z,1020.525504
2023-01-23T00:57:26.000Z,1020.525504
2023-01-23T00:57:48.000Z,1020.627096
2023-01-23T00:58:11.000Z,1020.627096
2023-01-23T00:58:56.000Z,1020.83028
2023-01-23T00:59:16.000Z,1020.83028
2023-01-23T00:59:51.000Z,1020.931872
2023-01-23T01:00:21.000Z,1020.931872
2023-01-23T01:00:51.000Z,1020.627096
2023-01-23T01:01:26.000Z,1020.627096
2023-01-23T01:01:48.000Z,1020.525504
2023-01-23T01:02:11.000Z,1020.525504
2023-01-23T01:02:46.000Z,1020.525504
2023-01-23T01:03:16.000Z,1020.7286879999999
2023-01-23T01:03:51.000Z,1020.83028
2023-01-23T01:04:22.000Z,1020.83028
2023-01-23T01:04:51.000Z,1020.7286879999999
2023-01-23T01:05:36.000Z,1020.7286879999999
2023-01-23T01:05:56.000Z,1020.7286879999999
2023-01-23T01:06:31.000Z,1020.7286879999999
2023-01-23T01:07:01.000Z,1020.83028
2023-01-23T01:07:32.000Z,1020.83028
2023-01-23T01:08:06.000Z,1020.525504
2023-01-23T01:08:36.000Z,1020.525504
2023-01-23T01:09:07.000Z,1020.7286879999999
2023-01-23T01:09:41.000Z,1020.7286879999999
2023-01-23T01:10:11.000Z,1020.83028
2023-01-23T01:10:32.000Z,1020.83028
2023-01-23T01:11:01.000Z,1020.7286879999999
2023-01-23T01:11:31.000Z,1020.7286879999999
2023-01-23T01:12:06.000Z,1020.83028
2023-01-23T01:12:36.000Z,1020.83028
2023-01-23T01:12:52.000Z,1020.83028
2023-01-23T01:13:26.000Z,1020.83028
2023-01-23T01:13:48.000Z,1020.7286879999999
2023-01-23T01:14:11.000Z,1020.7286879999999
2023-01-23T01:14:31.000Z,1020.7286879999999
2023-01-23T01:14:59.000Z,1020.7286879999999
2023-01-23T01:15:16.000Z,1020.7286879999999
2023-01-23T01:15:51.000Z,1020.931872
2023-01-23T01:16:21.000Z,1020.931872
2023-01-23T01:16:51.000Z,1020.931872
2023-01-23T01:17:07.000Z,1020.931872
2023-01-23T01:17:27.000Z,1020.931872
2023-01-23T01:17:46.000Z,1020.7286879999999
2023-01-23T01:18:11.000Z,1020.7286879999999
2023-01-23T01:18:31.000Z,1020.7286879999999
2023-01-23T01:18:56.000Z,1020.83028
2023-01-23T01:19:19.000Z,1020.83028
2023-01-23T01:19:46.000Z,1020.931872
2023-01-23T01:20:03.000Z,1020.931872
2023-01-23T01:20:21.000Z,1020.931872
2023-01-23T01:20:46.000Z,1020.7286879999999
2023-01-23T01:21:12.000Z,1020.7286879999999
2023-01-23T01:21:39.000Z,1020.7286879999999
2023-01-23T01:22:06.000Z,1020.83028
2023-01-23T01:22:33.000Z,1020.83028
2023-01-23T01:22:56.000Z,1020.83028
2023-01-23T01:23:19.000Z,1020.83028
2023-01-23T01:23:46.000Z,1020.7286879999999
2023-01-23T01:24:03.000Z,1020.7286879999999
2023-01-23T01:24:21.000Z,1020.7286879999999
2023-01-23T01:24:46.000Z,1020.83028
2023-01-23T01:25:12.000Z,1020.83028
2023-01-23T01:25:39.000Z,1020.83028
2023-01-23T01:26:06.000Z,1020.83028
2023-01-23T01:26:32.000Z,1020.83028
2023-01-23T01:26:56.000Z,1020.931872
2023-01-23T01:27:16.000Z,1020.931872
2023-01-23T01:27:51.000Z,1020.83028
2023-01-23T01:28:21.000Z,1020.83028
2023-01-23T01:28:51.000Z,1020.7286879999999
2023-01-23T01:29:07.000Z,1020.7286879999999
2023-01-23T01:29:26.000Z,1020.7286879999999
2023-01-23T01:29:48.000Z,1021.033464
2023-01-23T01:30:11.000Z,1021.033464
2023-01-23T01:30:32.000Z,1021.033464
2023-01-23T01:31:01.000Z,1021.033464
2023-01-23T01:31:31.000Z,1021.033464
2023-01-23T01:32:06.000Z,1020.931872
2023-01-23T01:32:36.000Z,1020.931872
2023-01-23T01:33:07.000Z,1020.931872
2023-01-23T01:33:36.000Z,1020.931872
2023-01-23T01:33:56.000Z,1020.931872
2023-01-23T01:34:31.000Z,1020.931872
2023-01-23T01:35:01.000Z,1020.931872
2023-01-23T01:35:31.000Z,1020.931872
2023-01-23T01:36:05.000Z,1020.931872
2023-01-23T01:36:37.000Z,1020.931872
2023-01-23T01:37:07.000Z,1020.7286879999999
2023-01-23T01:37:41.000Z,1020.7286879999999
2023-01-23T01:38:11.000Z,1020.627096
2023-01-23T01:38:46.000Z,1020.627096
2023-01-23T01:39:16.000Z,1020.83028
2023-01-23T01:39:52.000Z,1020.627096
2023-01-23T01:40:31.000Z,1020.627096
2023-01-23T01:41:01.000Z,1020.83028
2023-01-23T01:41:26.000Z,1020.83028
2023-01-23T01:41:48.000Z,1020.627096
2023-01-23T01:42:11.000Z,1020.627096
2023-01-23T01:42:46.000Z,1020.627096
2023-01-23T01:43:16.000Z,1020.7286879999999
2023-01-23T01:43:51.000Z,1020.7286879999999
2023-01-23T01:44:21.000Z,1020.7286879999999
2023-01-23T01:44:51.000Z,1020.627096
2023-01-23T01:45:26.000Z,1020.627096
2023-01-23T01:45:48.000Z,1020.931872
2023-01-23T01:46:11.000Z,1020.931872
2023-01-23T01:46:47.000Z,1020.931872
2023-01-23T01:47:16.000Z,1020.931872
2023-01-23T01:47:51.000Z,1020.83028
2023-01-23T01:48:19.000Z,1020.83028
2023-01-23T01:48:46.000Z,1020.83028
2023-01-23T01:49:11.000Z,1020.931872
2023-01-23T01:49:41.000Z,1020.931872
2023-01-23T01:50:11.000Z,1020.83028
2023-01-23T01:50:46.000Z,1020.83028
2023-01-23T01:51:16.000Z,1020.931872
2023-01-23T01:51:51.000Z,1020.7286879999999
2023-01-23T01:52:22.000Z,1020.7286879999999
2023-01-23T01:52:51.000Z,1020.83028
2023-01-23T01:53:26.000Z,1020.83028
2023-01-23T01:53:48.000Z,1020.931872
2023-01-23T01:54:11.000Z,1020.931872
2023-01-23T01:54:46.000Z,1020.931872
2023-01-23T01:55:18.000Z,1020.931872
2023-01-23T01:55:51.000Z,1020.931872
2023-01-23T01:56:19.000Z,1020.931872
2023-01-23T01:56:46.000Z,1020.931872
2023-01-23T01:57:12.000Z,1020.83028
2023-01-23T01:57:39.000Z,1020.83028
2023-01-23T01:58:06.000Z,1020.931872
2023-01-23T01:58:32.000Z,1020.931872
2023-01-23T01:58:56.000Z,1021.033464
2023-01-23T01:59:19.000Z,1021.033464
2023-01-23T01:59:46.000Z,1020.83028
2023-01-23T02:00:03.000Z,1020.83028
2023-01-23T02:00:21.000Z,1020.83028
2023-01-23T02:00:46.000Z,1020.83028
2023-01-23T02:01:13.000Z,1020.83028
2023-01-23T02:01:39.000Z,1020.83028
2023-01-23T02:02:06.000Z,1020.931872
2023-01-23T02:02:31.000Z,1020.931872
2023-01-23T02:02:47.000Z,1020.83028
2023-01-23T02:03:16.000Z,1020.83028
2023-01-23T02:03:51.000Z,1020.931872
2023-01-23T02:04:21.000Z,1020.931872
2023-01-23T02:04:51.000Z,1020.931872
2023-01-23T02:05:27.000Z,1020.931872
2023-01-23T02:05:48.000Z,1021.033464
2023-01-23T02:06:11.000Z,1021.033464
2023-01-23T02:06:46.000Z,1021.033464
2023-01-23T02:07:16.000Z,1020.931872
2023-01-23T02:07:51.000Z,1021.033464
2023-01-23T02:08:21.000Z,1021.033464
2023-01-23T02:08:46.000Z,1021.033464
2023-01-23T02:09:12.000Z,1021.033464
2023-01-23T02:09:39.000Z,1021.033464
2023-01-23T02:09:56.000Z,1020.83028
2023-01-23T02:10:31.000Z,1020.83028
2023-01-23T02:11:01.000Z,1020.83028
2023-01-23T02:11:31.000Z,1020.83028
2023-01-23T02:12:06.000Z,1020.83028
2023-01-23T02:12:36.000Z,1020.83028
2023-01-23T02:13:07.000Z,1021.033464
2023-01-23T02:13:26.000Z,1021.033464
2023-01-23T02:13:48.000Z,1020.931872
2023-01-23T02:14:11.000Z,1020.931872
2023-01-23T02:14:46.000Z,1020.931872
2023-01-23T02:15:16.000Z,1021.033464
2023-01-23T02:15:51.000Z,1020.931872
2023-01-23T02:16:22.000Z,1020.931872
2023-01-23T02:16:46.000Z,1021.033464
2023-01-23T02:17:11.000Z,1021.033464
2023-01-23T02:17:41.000Z,1021.033464
2023-01-23T02:18:11.000Z,1020.83028
2023-01-23T02:18:31.000Z,1020.83028
2023-01-23T02:18:46.000Z,1020.83028
2023-01-23T02:19:16.000Z,1020.83028
2023-01-23T02:19:51.000Z,1020.931872
2023-01-23T02:20:21.000Z,1020.931872
2023-01-23T02:20:51.000Z,1020.931872
2023-01-23T02:21:07.000Z,1020.931872
2023-01-23T02:21:26.000Z,1020.931872
2023-01-23T02:21:46.000Z,1021.033464
2023-01-23T02:22:11.000Z,1021.033464
2023-01-23T02:22:31.000Z,1021.033464
2023-01-23T02:22:59.000Z,1021.033464
2023-01-23T02:23:26.000Z,1021.033464
2023-01-23T02:23:52.000Z,1021.135056
2023-01-23T02:24:24.000Z,1021.135056
2023-01-23T02:24:51.000Z,1020.627096
2023-01-23T02:25:16.000Z,1020.627096
2023-01-23T02:25:42.000Z,1020.627096
2023-01-23T02:26:16.000Z,1020.83028
2023-01-23T02:26:56.000Z,1021.135056
2023-01-23T02:27:19.000Z,1021.135056
2023-01-23T02:27:46.000Z,1021.033464
2023-01-23T02:28:03.000Z,1021.033464
2023-01-23T02:28:21.000Z,1021.033464
2023-01-23T02:28:46.000Z,1020.7286879999999
2023-01-23T02:29:12.000Z,1020.7286879999999
2023-01-23T02:29:39.000Z,1020.7286879999999
2023-01-23T02:30:06.000Z,1021.033464
2023-01-23T02:30:31.000Z,1021.033464
2023-01-23T02:30:53.000Z,1020.83028
2023-01-23T02:31:16.000Z,1020.83028
2023-01-23T02:31:51.000Z,1021.033464
2023-01-23T02:32:21.000Z,1021.033464
2023-01-23T02:32:51.000Z,1021.033464
2023-01-23T02:33:07.000Z,1021.033464
2023-01-23T02:33:26.000Z,1021.033464
2023-01-23T02:33:48.000Z,1021.135056
2023-01-23T02:34:12.000Z,1021.135056
2023-01-23T02:34:46.000Z,1021.135056
2023-01-23T02:35:17.000Z,1021.135056
2023-01-23T02:35:51.000Z,1021.135056
2023-01-23T02:36:21.000Z,1021.135056
2023-01-23T02:36:46.000Z,1021.135056
2023-01-23T02:37:12.000Z,1021.135056
2023-01-23T02:37:39.000Z,1021.135056
2023-01-23T02:38:06.000Z,1021.033464
2023-01-23T02:38:31.000Z,1021.033464
2023-01-23T02:39:01.000Z,1021.135056
2023-01-23T02:39:31.000Z,1021.135056
2023-01-23T02:40:06.000Z,1021.2366480000001
2023-01-23T02:40:46.000Z,1021.2366480000001
2023-01-23T02:41:21.000Z,1021.135056
2023-01-23T02:41:41.000Z,1021.135056
2023-01-23T02:42:11.000Z,1021.033464
2023-01-23T02:42:46.000Z,1021.033464
2023-01-23T02:43:16.000Z,1021.135056
2023-01-23T02:43:51.000Z,1021.135056
2023-01-23T02:44:22.000Z,1021.135056
2023-01-23T02:44:46.000Z,1021.135056
2023-01-23T02:45:12.000Z,1021.135056
2023-01-23T02:45:41.000Z,1021.135056
2023-01-23T02:46:11.000Z,1021.135056
2023-01-23T02:46:46.000Z,1021.135056
2023-01-23T02:47:16.000Z,1021.033464
2023-01-23T02:47:51.000Z,1021.033464
2023-01-23T02:48:21.000Z,1021.033464
2023-01-23T02:48:51.000Z,1021.2366480000001
2023-01-23T02:49:26.000Z,1021.2366480000001
2023-01-23T02:49:48.000Z,1021.033464
2023-01-23T02:50:11.000Z,1021.033464
2023-01-23T02:50:46.000Z,1021.033464
2023-01-23T02:51:16.000Z,1021.033464
2023-01-23T02:51:51.000Z,1021.135056
2023-01-23T02:52:22.000Z,1021.135056
2023-01-23T02:52:51.000Z,1021.135056
2023-01-23T02:53:26.000Z,1021.135056
2023-01-23T02:53:48.000Z,1021.33824
2023-01-23T02:54:11.000Z,1021.33824
2023-01-23T02:54:46.000Z,1021.33824
2023-01-23T02:55:16.000Z,1021.33824
2023-01-23T02:55:51.000Z,1021.135056
2023-01-23T02:56:21.000Z,1021.135056
2023-01-23T02:56:51.000Z,1021.541424
2023-01-23T02:57:26.000Z,1021.541424
2023-01-23T02:57:48.000Z,1021.2366480000001
2023-01-23T02:58:11.000Z,1021.2366480000001
2023-01-23T02:58:47.000Z,1021.2366480000001
2023-01-23T02:59:16.000Z,1021.2366480000001
2023-01-23T02:59:51.000Z,1021.2366480000001
2023-01-23T03:00:21.000Z,1021.2366480000001
2023-01-23T03:00:51.000Z,1021.2366480000001
2023-01-23T03:01:27.000Z,1021.2366480000001
2023-01-23T03:01:48.000Z,1021.135056
2023-01-23T03:02:11.000Z,1021.135056
2023-01-23T03:02:46.000Z,1021.135056
2023-01-23T03:03:16.000Z,1021.439832
2023-01-23T03:03:51.000Z,1021.33824
2023-01-23T03:04:21.000Z,1021.33824
2023-01-23T03:04:51.000Z,1021.2366480000001
2023-01-23T03:05:16.000Z,1021.2366480000001
2023-01-23T03:05:42.000Z,1021.2366480000001
2023-01-23T03:06:11.000Z,1021.135056
2023-01-23T03:06:46.000Z,1021.135056
2023-01-23T03:07:16.000Z,1021.33824
2023-01-23T03:07:51.000Z,1021.135056
2023-01-23T03:08:21.000Z,1021.135056
2023-01-23T03:08:51.000Z,1021.135056
2023-01-23T03:09:27.000Z,1021.135056
2023-01-23T03:09:48.000Z,1021.135056
2023-01-23T03:10:11.000Z,1021.135056
2023-01-23T03:10:46.000Z,1021.135056
2023-01-23T03:11:16.000Z,1021.2366480000001
2023-01-23T03:12:01.000Z,1021.2366480000001
2023-01-23T03:12:24.000Z,1021.2366480000001
2023-01-23T03:12:51.000Z,1020.931872
2023-01-23T03:13:16.000Z,1020.931872
2023-01-23T03:13:41.000Z,1020.931872
2023-01-23T03:14:11.000Z,1021.033464
2023-01-23T03:14:46.000Z,1021.033464
2023-01-23T03:15:16.000Z,1021.033464
2023-01-23T03:15:52.000Z,1021.033464
2023-01-23T03:16:22.000Z,1021.033464
2023-01-23T03:16:52.000Z,1020.931872
2023-01-23T03:17:26.000Z,1020.931872
2023-01-23T03:17:48.000Z,1021.135056
2023-01-23T03:18:12.000Z,1021.135056
2023-01-23T03:18:47.000Z,1021.135056
2023-01-23T03:19:17.000Z,1021.033464
2023-01-23T03:19:51.000Z,1021.2366480000001
2023-01-23T03:20:19.000Z,1021.2366480000001
2023-01-23T03:20:37.000Z,1021.2366480000001
2023-01-23T03:21:07.000Z,1020.931872
2023-01-23T03:21:26.000Z,1020.931872
2023-01-23T03:21:48.000Z,1021.2366480000001
2023-01-23T03:22:11.000Z,1021.2366480000001
2023-01-23T03:22:32.000Z,1021.2366480000001
2023-01-23T03:22:59.000Z,1021.2366480000001
2023-01-23T03:23:16.000Z,1021.2366480000001
2023-01-23T03:23:51.000Z,1021.033464
2023-01-23T03:24:22.000Z,1021.033464
2023-01-23T03:24:51.000Z,1021.135056
2023-01-23T03:25:07.000Z,1021.135056
2023-01-23T03:25:26.000Z,1021.135056
2023-01-23T03:25:48.000Z,1021.135056
2023-01-23T03:26:11.000Z,1021.135056
2023-01-23T03:26:31.000Z,1021.135056
2023-01-23T03:26:56.000Z,1021.033464
2023-01-23T03:27:19.000Z,1021.033464
2023-01-23T03:27:46.000Z,1021.135056
2023-01-23T03:28:03.000Z,1021.135056
2023-01-23T03:28:21.000Z,1021.135056
2023-01-23T03:28:51.000Z,1021.2366480000001
2023-01-23T03:29:27.000Z,1021.2366480000001
2023-01-23T03:29:48.000Z,1021.33824
2023-01-23T03:30:11.000Z,1021.33824
2023-01-23T03:30:47.000Z,1021.33824
2023-01-23T03:31:16.000Z,1021.135056
2023-01-23T03:31:51.000Z,1021.135056
2023-01-23T03:32:22.000Z,1021.135056
2023-01-23T03:32:51.000Z,1020.931872
2023-01-23T03:33:26.000Z,1020.931872
2023-01-23T03:33:48.000Z,1021.135056
2023-01-23T03:34:16.000Z,1021.135056
2023-01-23T03:34:43.000Z,1021.135056
2023-01-23T03:35:01.000Z,1021.135056
2023-01-23T03:35:36.000Z,1021.135056
2023-01-23T03:36:07.000Z,1021.135056
2023-01-23T03:36:46.000Z,1021.135056
2023-01-23T03:37:12.000Z,1021.033464
2023-01-23T03:37:39.000Z,1021.033464
2023-01-23T03:38:06.000Z,1021.135056
2023-01-23T03:38:31.000Z,1021.135056
2023-01-23T03:39:01.000Z,1020.83028
2023-01-23T03:39:31.000Z,1020.83028
2023-01-23T03:40:06.000Z,1020.931872
2023-01-23T03:40:36.000Z,1020.931872
2023-01-23T03:41:07.000Z,1021.135056
2023-01-23T03:41:26.000Z,1021.135056
2023-01-23T03:41:48.000Z,1021.033464
2023-01-23T03:42:12.000Z,1021.033464
2023-01-23T03:42:46.000Z,1021.033464
2023-01-23T03:43:16.000Z,1021.135056
2023-01-23T03:43:51.000Z,1021.033464
2023-01-23T03:44:21.000Z,1021.033464
2023-01-23T03:44:53.000Z,1021.2366480000001
2023-01-23T03:45:26.000Z,1021.2366480000001
2023-01-23T03:45:48.000Z,1021.135056
2023-01-23T03:46:11.000Z,1021.135056
2023-01-23T03:46:47.000Z,1021.135056
2023-01-23T03:47:16.000Z,1021.033464
2023-01-23T03:47:51.000Z,1021.2366480000001
2023-01-23T03:48:21.000Z,1021.2366480000001
2023-01-23T03:48:51.000Z,1020.931872
2023-01-23T03:49:26.000Z,1020.931872
2023-01-23T03:49:48.000Z,1021.2366480000001
2023-01-23T03:50:11.000Z,1021.2366480000001
2023-01-23T03:50:46.000Z,1021.2366480000001
2023-01-23T03:51:16.000Z,1021.135056
2023-01-23T03:52:01.000Z,1021.2366480000001
2023-01-23T03:52:24.000Z,1021.2366480000001
2023-01-23T03:52:51.000Z,1021.033464
2023-01-23T03:53:16.000Z,1021.033464
2023-01-23T03:53:42.000Z,1021.033464
2023-01-23T03:54:11.000Z,1021.135056
2023-01-23T03:54:46.000Z,1021.135056
2023-01-23T03:55:16.000Z,1021.033464
2023-01-23T03:55:51.000Z,1021.135056
2023-01-23T03:56:21.000Z,1021.135056
2023-01-23T03:56:51.000Z,1020.931872
2023-01-23T03:57:26.000Z,1020.931872
2023-01-23T03:57:48.000Z,1021.033464
2023-01-23T03:58:12.000Z,1021.033464
2023-01-23T03:58:46.000Z,1021.033464
2023-01-23T03:59:16.000Z,1021.033464
2023-01-23T03:59:51.000Z,1020.931872
2023-01-23T04:00:22.000Z,1020.931872
2023-01-23T04:00:46.000Z,1021.135056
2023-01-23T04:01:13.000Z,1021.135056
2023-01-23T04:01:41.000Z,1021.135056
2023-01-23T04:02:16.000Z,1021.2366480000001
2023-01-23T04:02:56.000Z,1021.033464
2023-01-23T04:03:19.000Z,1021.033464
2023-01-23T04:03:46.000Z,1021.2366480000001
2023-01-23T04:04:03.000Z,1021.2366480000001
2023-01-23T04:04:21.000Z,1021.2366480000001
2023-01-23T04:04:51.000Z,1021.2366480000001
2023-01-23T04:05:26.000Z,1021.2366480000001
2023-01-23T04:05:48.000Z,1021.135056
2023-01-23T04:06:12.000Z,1021.135056
2023-01-23T04:06:46.000Z,1021.135056
2023-01-23T04:07:17.000Z,1021.135056
2023-01-23T04:07:51.000Z,1021.2366480000001
2023-01-23T04:08:21.000Z,1021.2366480000001
2023-01-23T04:08:51.000Z,1021.033464
2023-01-23T04:09:27.000Z,1021.033464
2023-01-23T04:09:48.000Z,1021.2366480000001
2023-01-23T04:10:11.000Z,1021.2366480000001
2023-01-23T04:10:31.000Z,1021.2366480000001
2023-01-23T04:10:56.000Z,1021.2366480000001
2023-01-23T04:11:19.000Z,1021.2366480000001
2023-01-23T04:11:46.000Z,1021.33824
2023-01-23T04:12:03.000Z,1021.33824
2023-01-23T04:12:22.000Z,1021.33824
2023-01-23T04:12:51.000Z,1021.2366480000001
2023-01-23T04:13:07.000Z,1021.2366480000001
2023-01-23T04:13:26.000Z,1021.2366480000001
2023-01-23T04:13:48.000Z,1021.2366480000001
2023-01-23T04:14:11.000Z,1021.2366480000001
2023-01-23T04:14:46.000Z,1021.2366480000001
2023-01-23T04:15:16.000Z,1021.439832
2023-01-23T04:15:51.000Z,1021.2366480000001
2023-01-23T04:16:22.000Z,1021.2366480000001
2023-01-23T04:16:51.000Z,1021.2366480000001
2023-01-23T04:17:26.000Z,1021.2366480000001
2023-01-23T04:17:48.000Z,1021.2366480000001
2023-01-23T04:18:11.000Z,1021.2366480000001
2023-01-23T04:18:41.000Z,1021.2366480000001
2023-01-23T04:19:08.000Z,1021.2366480000001
2023-01-23T04:19:33.000Z,1021.2366480000001
2023-01-23T04:20:01.000Z,1021.135056
2023-01-23T04:20:24.000Z,1021.135056
2023-01-23T04:20:51.000Z,1021.135056
2023-01-23T04:21:16.000Z,1021.135056
2023-01-23T04:21:43.000Z,1021.135056
2023-01-23T04:22:17.000Z,1021.2366480000001
2023-01-23T04:22:46.000Z,1021.2366480000001
2023-01-23T04:23:16.000Z,1021.135056
2023-01-23T04:23:51.000Z,1021.2366480000001
2023-01-23T04:24:21.000Z,1021.2366480000001
2023-01-23T04:24:51.000Z,1021.33824
2023-01-23T04:25:07.000Z,1021.33824
2023-01-23T04:25:26.000Z,1021.33824
2023-01-23T04:25:48.000Z,1021.439832
2023-01-23T04:26:11.000Z,1021.439832
2023-01-23T04:26:32.000Z,1021.439832
2023-01-23T04:27:01.000Z,1021.439832
2023-01-23T04:27:31.000Z,1021.439832
2023-01-23T04:27:51.000Z,1021.33824
2023-01-23T04:28:21.000Z,1021.33824
2023-01-23T04:28:51.000Z,1021.439832
2023-01-23T04:29:08.000Z,1021.439832
2023-01-23T04:29:39.000Z,1021.439832
2023-01-23T04:30:06.000Z,1021.33824
2023-01-23T04:30:32.000Z,1021.33824
2023-01-23T04:30:56.000Z,1021.2366480000001
2023-01-23T04:31:19.000Z,1021.2366480000001
2023-01-23T04:31:47.000Z,1021.33824
2023-01-23T04:32:03.000Z,1021.33824
2023-01-23T04:32:22.000Z,1021.33824
2023-01-23T04:32:51.000Z,1021.541424
2023-01-23T04:33:23.000Z,1021.541424
2023-01-23T04:33:41.000Z,1021.541424
2023-01-23T04:34:11.000Z,1021.541424
2023-01-23T04:34:46.000Z,1021.541424
2023-01-23T04:35:16.000Z,1021.33824
2023-01-23T04:35:51.000Z,1021.439832
2023-01-23T04:36:21.000Z,1021.439832
2023-01-23T04:36:51.000Z,1021.439832
2023-01-23T04:37:26.000Z,1021.439832
2023-01-23T04:37:48.000Z,1021.541424
2023-01-23T04:38:11.000Z,1021.541424
2023-01-23T04:38:41.000Z,1021.541424
2023-01-23T04:39:08.000Z,1021.33824
2023-01-23T04:39:33.000Z,1021.33824
2023-01-23T04:40:01.000Z,1021.439832
2023-01-23T04:40:24.000Z,1021.439832
2023-01-23T04:40:51.000Z,1021.439832
2023-01-23T04:41:07.000Z,1021.439832
2023-01-23T04:41:27.000Z,1021.439832
2023-01-23T04:41:48.000Z,1021.33824
2023-01-23T04:42:12.000Z,1021.33824
2023-01-23T04:42:31.000Z,1021.33824
2023-01-23T04:43:01.000Z,1021.541424
2023-01-23T04:43:31.000Z,1021.541424
2023-01-23T04:44:06.000Z,1021.541424
2023-01-23T04:44:36.000Z,1021.541424
2023-01-23T04:45:07.000Z,1021.439832
2023-01-23T04:45:26.000Z,1021.439832
2023-01-23T04:45:48.000Z,1021.2366480000001
2023-01-23T04:46:11.000Z,1021.2366480000001
2023-01-23T04:46:32.000Z,1021.2366480000001
2023-01-23T04:46:56.000Z,1021.33824
2023-01-23T04:47:19.000Z,1021.33824
2023-01-23T04:47:47.000Z,1021.33824
2023-01-23T04:48:03.000Z,1021.33824
2023-01-23T04:48:46.000Z,1021.33824
2023-01-23T04:49:12.000Z,1021.439832
2023-01-23T04:49:39.000Z,1021.439832
2023-01-23T04:50:06.000Z,1021.439832
2023-01-23T04:50:33.000Z,1021.439832
2023-01-23T04:51:02.000Z,1021.439832
2023-01-23T04:51:31.000Z,1021.439832